sensor_id;sensor_type;location;lat;lon;timestamp;temperature;humidity
74101;DHT22;62462;52.530;21.682;2022-08-21T00:02:03;24.80;52.10
74101;DHT22;62462;52.530;21.682;2022-08-21T00:04:30;24.70;52.20
74101;DHT22;62462;52.530;21.682;2022-08-21T00:06:56;24.70;52.30
74101;DHT22;62462;52.530;21.682;2022-08-21T00:09:22;24.70;52.20
74101;DHT22;62462;52.530;21.682;2022-08-21T00:11:48;24.80;52.20
74101;DHT22;62462;52.530;21.682;2022-08-21T00:14:14;24.60;52.40
74101;DHT22;62462;52.530;21.682;2022-08-21T00:16:40;24.60;52.70
74101;DHT22;62462;52.530;21.682;2022-08-21T00:19:06;24.60;52.80
74101;DHT22;62462;52.530;21.682;2022-08-21T00:21:33;24.50;52.70
74101;DHT22;62462;52.530;21.682;2022-08-21T00:23:59;24.60;52.70
74101;DHT22;62462;52.530;21.682;2022-08-21T00:26:25;24.60;52.60
74101;DHT22;62462;52.530;21.682;2022-08-21T00:28:52;24.60;52.60
74101;DHT22;62462;52.530;21.682;2022-08-21T00:31:18;24.60;52.70
74101;DHT22;62462;52.530;21.682;2022-08-21T00:33:44;24.50;52.90
74101;DHT22;62462;52.530;21.682;2022-08-21T00:36:11;24.50;52.80
74101;DHT22;62462;52.530;21.682;2022-08-21T00:38:37;24.40;52.90
74101;DHT22;62462;52.530;21.682;2022-08-21T00:41:05;24.40;53.00
74101;DHT22;62462;52.530;21.682;2022-08-21T00:43:34;24.30;53.10
74101;DHT22;62462;52.530;21.682;2022-08-21T00:46:03;24.30;53.20
74101;DHT22;62462;52.530;21.682;2022-08-21T00:48:30;24.30;53.40
74101;DHT22;62462;52.530;21.682;2022-08-21T00:51:07;24.30;53.40
74101;DHT22;62462;52.530;21.682;2022-08-21T00:53:36;24.30;53.40
74101;DHT22;62462;52.530;21.682;2022-08-21T00:56:05;24.30;53.30
74101;DHT22;62462;52.530;21.682;2022-08-21T00:58:32;24.30;53.40
74101;DHT22;62462;52.530;21.682;2022-08-21T01:01:06;24.20;53.50
74101;DHT22;62462;52.530;21.682;2022-08-21T01:03:33;24.10;53.60
74101;DHT22;62462;52.530;21.682;2022-08-21T01:05:58;24.00;53.80
74101;DHT22;62462;52.530;21.682;2022-08-21T01:08:25;23.90;54.00
74101;DHT22;62462;52.530;21.682;2022-08-21T01:10:53;23.90;54.30
74101;DHT22;62462;52.530;21.682;2022-08-21T01:13:19;23.90;54.40
74101;DHT22;62462;52.530;21.682;2022-08-21T01:15:48;23.80;54.40
74101;DHT22;62462;52.530;21.682;2022-08-21T01:18:15;23.80;54.40
74101;DHT22;62462;52.530;21.682;2022-08-21T01:20:45;23.80;54.40
74101;DHT22;62462;52.530;21.682;2022-08-21T01:23:11;23.80;54.30
74101;DHT22;62462;52.530;21.682;2022-08-21T01:25:37;23.70;54.30
74101;DHT22;62462;52.530;21.682;2022-08-21T01:28:09;23.70;54.40
74101;DHT22;62462;52.530;21.682;2022-08-21T01:30:37;23.70;54.50
74101;DHT22;62462;52.530;21.682;2022-08-21T01:33:03;23.70;54.60
74101;DHT22;62462;52.530;21.682;2022-08-21T01:35:29;23.60;54.80
74101;DHT22;62462;52.530;21.682;2022-08-21T01:37:54;23.50;55.00
74101;DHT22;62462;52.530;21.682;2022-08-21T01:42:58;23.40;55.30
74101;DHT22;62462;52.530;21.682;2022-08-21T01:45:24;23.30;55.40
74101;DHT22;62462;52.530;21.682;2022-08-21T01:47:50;23.30;55.60
74101;DHT22;62462;52.530;21.682;2022-08-21T01:50:18;23.20;55.70
74101;DHT22;62462;52.530;21.682;2022-08-21T01:52:44;23.20;55.70
74101;DHT22;62462;52.530;21.682;2022-08-21T01:55:11;23.20;55.60
74101;DHT22;62462;52.530;21.682;2022-08-21T01:57:37;23.20;55.60
74101;DHT22;62462;52.530;21.682;2022-08-21T02:00:07;23.20;55.50
74101;DHT22;62462;52.530;21.682;2022-08-21T02:02:34;23.20;55.60
74101;DHT22;62462;52.530;21.682;2022-08-21T02:04:59;23.20;55.70
74101;DHT22;62462;52.530;21.682;2022-08-21T02:07:25;23.10;55.70
74101;DHT22;62462;52.530;21.682;2022-08-21T02:09:51;23.10;55.80
74101;DHT22;62462;52.530;21.682;2022-08-21T02:12:17;23.10;55.80
74101;DHT22;62462;52.530;21.682;2022-08-21T02:14:43;23.10;55.90
74101;DHT22;62462;52.530;21.682;2022-08-21T02:17:08;23.00;55.80
74101;DHT22;62462;52.530;21.682;2022-08-21T02:19:34;23.10;55.80
74101;DHT22;62462;52.530;21.682;2022-08-21T02:22:00;23.10;55.80
74101;DHT22;62462;52.530;21.682;2022-08-21T02:24:26;23.10;55.60
74101;DHT22;62462;52.530;21.682;2022-08-21T02:26:51;23.10;55.60
74101;DHT22;62462;52.530;21.682;2022-08-21T02:29:17;23.10;55.50
74101;DHT22;62462;52.530;21.682;2022-08-21T02:31:43;23.10;55.50
74101;DHT22;62462;52.530;21.682;2022-08-21T02:34:09;23.00;55.80
74101;DHT22;62462;52.530;21.682;2022-08-21T02:36:35;22.90;56.00
74101;DHT22;62462;52.530;21.682;2022-08-21T02:39:00;22.90;55.90
74101;DHT22;62462;52.530;21.682;2022-08-21T02:41:26;22.80;56.40
74101;DHT22;62462;52.530;21.682;2022-08-21T02:43:52;22.70;56.70
74101;DHT22;62462;52.530;21.682;2022-08-21T02:46:20;22.60;56.60
74101;DHT22;62462;52.530;21.682;2022-08-21T02:48:47;22.60;56.80
74101;DHT22;62462;52.530;21.682;2022-08-21T02:51:18;22.60;56.80
74101;DHT22;62462;52.530;21.682;2022-08-21T02:53:49;22.60;56.90
74101;DHT22;62462;52.530;21.682;2022-08-21T02:56:17;22.60;56.80
74101;DHT22;62462;52.530;21.682;2022-08-21T02:58:46;22.60;56.80
74101;DHT22;62462;52.530;21.682;2022-08-21T03:01:12;22.50;57.00
74101;DHT22;62462;52.530;21.682;2022-08-21T03:03:41;22.60;56.80
74101;DHT22;62462;52.530;21.682;2022-08-21T03:06:09;22.60;56.70
74101;DHT22;62462;52.530;21.682;2022-08-21T03:08:36;22.70;56.40
74101;DHT22;62462;52.530;21.682;2022-08-21T03:11:03;22.70;56.40
74101;DHT22;62462;52.530;21.682;2022-08-21T03:13:29;22.70;56.30
74101;DHT22;62462;52.530;21.682;2022-08-21T03:15:56;22.70;56.30
74101;DHT22;62462;52.530;21.682;2022-08-21T03:18:22;22.80;56.40
74101;DHT22;62462;52.530;21.682;2022-08-21T03:20:48;22.70;56.10
74101;DHT22;62462;52.530;21.682;2022-08-21T03:23:16;22.70;55.90
74101;DHT22;62462;52.530;21.682;2022-08-21T03:25:43;22.70;56.00
74101;DHT22;62462;52.530;21.682;2022-08-21T03:28:11;22.60;56.20
74101;DHT22;62462;52.530;21.682;2022-08-21T03:30:37;22.60;56.40
74101;DHT22;62462;52.530;21.682;2022-08-21T03:33:03;22.50;56.70
74101;DHT22;62462;52.530;21.682;2022-08-21T03:35:32;22.50;56.50
74101;DHT22;62462;52.530;21.682;2022-08-21T03:37:58;22.50;56.50
74101;DHT22;62462;52.530;21.682;2022-08-21T03:40:24;22.50;56.50
74101;DHT22;62462;52.530;21.682;2022-08-21T03:42:50;22.40;56.70
74101;DHT22;62462;52.530;21.682;2022-08-21T03:45:17;22.40;56.90
74101;DHT22;62462;52.530;21.682;2022-08-21T03:47:59;22.40;56.90
74101;DHT22;62462;52.530;21.682;2022-08-21T03:50:33;22.50;57.00
74101;DHT22;62462;52.530;21.682;2022-08-21T03:52:59;22.50;56.80
74101;DHT22;62462;52.530;21.682;2022-08-21T03:55:26;22.50;56.70
74101;DHT22;62462;52.530;21.682;2022-08-21T03:57:52;22.60;56.60
74101;DHT22;62462;52.530;21.682;2022-08-21T04:00:18;22.50;56.60
74101;DHT22;62462;52.530;21.682;2022-08-21T04:02:44;22.50;56.50
74101;DHT22;62462;52.530;21.682;2022-08-21T04:05:12;22.60;56.70
74101;DHT22;62462;52.530;21.682;2022-08-21T04:07:38;22.60;56.80
74101;DHT22;62462;52.530;21.682;2022-08-21T04:10:05;22.60;56.80
74101;DHT22;62462;52.530;21.682;2022-08-21T04:12:31;22.60;56.80
74101;DHT22;62462;52.530;21.682;2022-08-21T04:14:57;22.50;56.80
74101;DHT22;62462;52.530;21.682;2022-08-21T04:17:23;22.50;56.80
74101;DHT22;62462;52.530;21.682;2022-08-21T04:19:48;22.50;57.10
74101;DHT22;62462;52.530;21.682;2022-08-21T04:22:15;22.40;57.00
74101;DHT22;62462;52.530;21.682;2022-08-21T04:24:44;22.40;57.90
74101;DHT22;62462;52.530;21.682;2022-08-21T04:27:10;22.40;58.40
74101;DHT22;62462;52.530;21.682;2022-08-21T04:29:36;22.30;58.20
74101;DHT22;62462;52.530;21.682;2022-08-21T04:32:02;22.30;59.70
74101;DHT22;62462;52.530;21.682;2022-08-21T04:34:28;22.30;59.00
74101;DHT22;62462;52.530;21.682;2022-08-21T04:36:54;22.20;59.50
74101;DHT22;62462;52.530;21.682;2022-08-21T04:39:19;22.20;60.20
74101;DHT22;62462;52.530;21.682;2022-08-21T04:41:45;22.20;60.30
74101;DHT22;62462;52.530;21.682;2022-08-21T04:44:11;22.20;60.00
74101;DHT22;62462;52.530;21.682;2022-08-21T04:46:37;22.30;59.70
74101;DHT22;62462;52.530;21.682;2022-08-21T04:49:03;22.30;60.20
74101;DHT22;62462;52.530;21.682;2022-08-21T04:51:32;22.30;60.20
74101;DHT22;62462;52.530;21.682;2022-08-21T04:54:20;22.40;59.90
74101;DHT22;62462;52.530;21.682;2022-08-21T04:56:59;22.50;59.50
74101;DHT22;62462;52.530;21.682;2022-08-21T04:59:37;22.50;60.20
74101;DHT22;62462;52.530;21.682;2022-08-21T05:02:06;22.50;60.20
74101;DHT22;62462;52.530;21.682;2022-08-21T05:04:35;22.50;60.90
74101;DHT22;62462;52.530;21.682;2022-08-21T05:07:04;22.50;60.90
74101;DHT22;62462;52.530;21.682;2022-08-21T05:09:32;22.50;61.40
74101;DHT22;62462;52.530;21.682;2022-08-21T05:11:58;22.50;61.00
74101;DHT22;62462;52.530;21.682;2022-08-21T05:14:23;22.60;61.10
74101;DHT22;62462;52.530;21.682;2022-08-21T05:16:50;22.60;61.30
74101;DHT22;62462;52.530;21.682;2022-08-21T05:19:16;22.60;61.40
74101;DHT22;62462;52.530;21.682;2022-08-21T05:21:44;22.60;61.90
74101;DHT22;62462;52.530;21.682;2022-08-21T05:24:10;22.70;61.80
74101;DHT22;62462;52.530;21.682;2022-08-21T05:26:37;22.80;61.30
74101;DHT22;62462;52.530;21.682;2022-08-21T05:29:03;22.90;61.20
74101;DHT22;62462;52.530;21.682;2022-08-21T05:31:29;22.90;61.20
74101;DHT22;62462;52.530;21.682;2022-08-21T05:33:55;23.00;62.20
74101;DHT22;62462;52.530;21.682;2022-08-21T05:36:21;22.90;61.80
74101;DHT22;62462;52.530;21.682;2022-08-21T05:38:47;23.00;62.40
74101;DHT22;62462;52.530;21.682;2022-08-21T05:41:13;23.00;62.30
74101;DHT22;62462;52.530;21.682;2022-08-21T05:43:39;23.00;62.40
74101;DHT22;62462;52.530;21.682;2022-08-21T05:46:06;23.10;62.00
74101;DHT22;62462;52.530;21.682;2022-08-21T05:48:33;23.20;62.00
74101;DHT22;62462;52.530;21.682;2022-08-21T05:51:05;23.20;61.50
74101;DHT22;62462;52.530;21.682;2022-08-21T05:53:31;23.40;61.30
74101;DHT22;62462;52.530;21.682;2022-08-21T05:55:57;23.60;60.90
74101;DHT22;62462;52.530;21.682;2022-08-21T05:58:22;23.70;61.00
74101;DHT22;62462;52.530;21.682;2022-08-21T06:00:50;23.70;60.60
74101;DHT22;62462;52.530;21.682;2022-08-21T06:03:20;23.80;60.50
74101;DHT22;62462;52.530;21.682;2022-08-21T06:05:46;23.90;60.60
74101;DHT22;62462;52.530;21.682;2022-08-21T06:08:13;24.00;60.10
74101;DHT22;62462;52.530;21.682;2022-08-21T06:10:39;24.10;60.00
74101;DHT22;62462;52.530;21.682;2022-08-21T06:13:05;24.20;59.60
74101;DHT22;62462;52.530;21.682;2022-08-21T06:15:30;24.30;59.70
74101;DHT22;62462;52.530;21.682;2022-08-21T06:17:56;24.30;59.90
74101;DHT22;62462;52.530;21.682;2022-08-21T06:20:22;24.40;59.50
74101;DHT22;62462;52.530;21.682;2022-08-21T06:22:48;24.50;59.40
74101;DHT22;62462;52.530;21.682;2022-08-21T06:25:14;24.50;59.30
74101;DHT22;62462;52.530;21.682;2022-08-21T06:27:40;24.60;59.30
74101;DHT22;62462;52.530;21.682;2022-08-21T06:30:09;24.60;59.30
74101;DHT22;62462;52.530;21.682;2022-08-21T06:32:35;24.60;59.60
74101;DHT22;62462;52.530;21.682;2022-08-21T06:35:01;24.70;59.40
74101;DHT22;62462;52.530;21.682;2022-08-21T06:37:26;24.70;59.30
74101;DHT22;62462;52.530;21.682;2022-08-21T06:39:52;24.70;59.40
74101;DHT22;62462;52.530;21.682;2022-08-21T06:42:18;24.80;59.20
74101;DHT22;62462;52.530;21.682;2022-08-21T06:44:44;25.00;59.10
74101;DHT22;62462;52.530;21.682;2022-08-21T06:47:11;25.10;58.90
74101;DHT22;62462;52.530;21.682;2022-08-21T06:49:37;25.20;58.60
74101;DHT22;62462;52.530;21.682;2022-08-21T06:52:03;25.30;58.40
74101;DHT22;62462;52.530;21.682;2022-08-21T06:54:29;25.40;58.30
74101;DHT22;62462;52.530;21.682;2022-08-21T06:56:56;25.50;58.10
74101;DHT22;62462;52.530;21.682;2022-08-21T06:59:21;25.60;58.00
74101;DHT22;62462;52.530;21.682;2022-08-21T07:01:47;25.70;57.90
74101;DHT22;62462;52.530;21.682;2022-08-21T07:04:13;25.70;57.60
74101;DHT22;62462;52.530;21.682;2022-08-21T07:06:39;25.70;57.70
74101;DHT22;62462;52.530;21.682;2022-08-21T07:09:05;25.70;57.70
74101;DHT22;62462;52.530;21.682;2022-08-21T07:11:31;25.90;57.50
74101;DHT22;62462;52.530;21.682;2022-08-21T07:13:57;25.90;57.20
74101;DHT22;62462;52.530;21.682;2022-08-21T07:16:24;25.90;57.20
74101;DHT22;62462;52.530;21.682;2022-08-21T07:18:50;26.00;57.20
74101;DHT22;62462;52.530;21.682;2022-08-21T07:21:16;26.10;57.10
74101;DHT22;62462;52.530;21.682;2022-08-21T07:23:45;26.30;57.00
74101;DHT22;62462;52.530;21.682;2022-08-21T07:26:16;26.40;57.00
74101;DHT22;62462;52.530;21.682;2022-08-21T07:28:42;26.40;56.70
74101;DHT22;62462;52.530;21.682;2022-08-21T07:31:09;26.50;56.50
74101;DHT22;62462;52.530;21.682;2022-08-21T07:33:35;26.60;56.40
74101;DHT22;62462;52.530;21.682;2022-08-21T07:36:02;26.60;56.30
74101;DHT22;62462;52.530;21.682;2022-08-21T07:38:27;26.70;56.10
74101;DHT22;62462;52.530;21.682;2022-08-21T07:40:56;26.70;56.00
74101;DHT22;62462;52.530;21.682;2022-08-21T07:43:24;26.80;55.70
74101;DHT22;62462;52.530;21.682;2022-08-21T07:45:51;26.90;55.80
74101;DHT22;62462;52.530;21.682;2022-08-21T07:48:17;26.90;55.50
74101;DHT22;62462;52.530;21.682;2022-08-21T07:50:43;27.00;55.80
74101;DHT22;62462;52.530;21.682;2022-08-21T07:53:09;27.10;55.90
74101;DHT22;62462;52.530;21.682;2022-08-21T07:55:58;27.20;55.70
74101;DHT22;62462;52.530;21.682;2022-08-21T07:58:24;27.30;55.60
74101;DHT22;62462;52.530;21.682;2022-08-21T08:00:50;27.30;54.90
74101;DHT22;62462;52.530;21.682;2022-08-21T08:03:16;27.30;54.90
74101;DHT22;62462;52.530;21.682;2022-08-21T08:05:42;27.40;55.30
74101;DHT22;62462;52.530;21.682;2022-08-21T08:08:08;27.40;55.00
74101;DHT22;62462;52.530;21.682;2022-08-21T08:10:35;27.20;54.20
74101;DHT22;62462;52.530;21.682;2022-08-21T08:13:02;27.10;54.20
74101;DHT22;62462;52.530;21.682;2022-08-21T08:15:28;27.00;54.00
74101;DHT22;62462;52.530;21.682;2022-08-21T08:17:55;26.80;54.50
74101;DHT22;62462;52.530;21.682;2022-08-21T08:20:22;26.60;54.80
74101;DHT22;62462;52.530;21.682;2022-08-21T08:22:49;26.60;55.10
74101;DHT22;62462;52.530;21.682;2022-08-21T08:25:15;26.70;55.20
74101;DHT22;62462;52.530;21.682;2022-08-21T08:27:42;26.60;55.10
74101;DHT22;62462;52.530;21.682;2022-08-21T08:30:10;26.70;55.50
74101;DHT22;62462;52.530;21.682;2022-08-21T08:32:36;26.90;55.70
74101;DHT22;62462;52.530;21.682;2022-08-21T08:35:03;27.10;55.40
74101;DHT22;62462;52.530;21.682;2022-08-21T08:37:29;27.10;54.80
74101;DHT22;62462;52.530;21.682;2022-08-21T08:39:55;27.20;54.70
74101;DHT22;62462;52.530;21.682;2022-08-21T08:42:28;27.20;54.60
74101;DHT22;62462;52.530;21.682;2022-08-21T08:45:09;27.30;54.40
74101;DHT22;62462;52.530;21.682;2022-08-21T08:47:43;27.20;54.50
74101;DHT22;62462;52.530;21.682;2022-08-21T08:50:19;27.30;54.40
74101;DHT22;62462;52.530;21.682;2022-08-21T08:53:02;27.30;54.60
74101;DHT22;62462;52.530;21.682;2022-08-21T08:55:32;27.50;54.80
74101;DHT22;62462;52.530;21.682;2022-08-21T08:57:59;27.70;54.60
74101;DHT22;62462;52.530;21.682;2022-08-21T09:00:25;27.90;54.50
74101;DHT22;62462;52.530;21.682;2022-08-21T09:02:59;28.10;54.30
74101;DHT22;62462;52.530;21.682;2022-08-21T09:11:33;27.90;55.10
74101;DHT22;62462;52.530;21.682;2022-08-21T09:26:07;28.00;53.60
74101;DHT22;62462;52.530;21.682;2022-08-21T09:28:34;28.00;53.20
74101;DHT22;62462;52.530;21.682;2022-08-21T09:31:07;28.00;53.30
74101;DHT22;62462;52.530;21.682;2022-08-21T09:33:33;28.00;53.50
74101;DHT22;62462;52.530;21.682;2022-08-21T09:35:58;28.00;53.50
74101;DHT22;62462;52.530;21.682;2022-08-21T09:41:01;28.10;54.40
74101;DHT22;62462;52.530;21.682;2022-08-21T09:43:27;28.20;53.30
74101;DHT22;62462;52.530;21.682;2022-08-21T09:48:43;28.00;52.50
74101;DHT22;62462;52.530;21.682;2022-08-21T09:51:13;28.20;53.10
74101;DHT22;62462;52.530;21.682;2022-08-21T09:53:49;28.30;52.40
74101;DHT22;62462;52.530;21.682;2022-08-21T09:59:28;28.30;52.30
74101;DHT22;62462;52.530;21.682;2022-08-21T10:01:57;28.20;51.10
74101;DHT22;62462;52.530;21.682;2022-08-21T10:04:33;28.10;51.90
74101;DHT22;62462;52.530;21.682;2022-08-21T10:07:13;28.20;52.30
74101;DHT22;62462;52.530;21.682;2022-08-21T10:09:40;28.30;51.60
74101;DHT22;62462;52.530;21.682;2022-08-21T10:12:19;28.20;51.90
74101;DHT22;62462;52.530;21.682;2022-08-21T10:15:06;28.20;51.80
74101;DHT22;62462;52.530;21.682;2022-08-21T10:31:33;28.30;52.40
74101;DHT22;62462;52.530;21.682;2022-08-21T10:39:42;29.00;50.60
74101;DHT22;62462;52.530;21.682;2022-08-21T10:45:15;28.90;50.20
74101;DHT22;62462;52.530;21.682;2022-08-21T10:48:01;28.90;49.80
74101;DHT22;62462;52.530;21.682;2022-08-21T10:56:04;29.30;49.10
74101;DHT22;62462;52.530;21.682;2022-08-21T10:58:37;29.00;48.50
74101;DHT22;62462;52.530;21.682;2022-08-21T11:01:13;28.80;49.40
74101;DHT22;62462;52.530;21.682;2022-08-21T11:03:46;28.70;49.70
74101;DHT22;62462;52.530;21.682;2022-08-21T11:06:23;28.80;49.80
74101;DHT22;62462;52.530;21.682;2022-08-21T11:09:02;29.00;49.50
74101;DHT22;62462;52.530;21.682;2022-08-21T11:11:36;29.10;48.20
74101;DHT22;62462;52.530;21.682;2022-08-21T11:16:57;29.30;49.20
74101;DHT22;62462;52.530;21.682;2022-08-21T11:19:50;29.60;48.90
74101;DHT22;62462;52.530;21.682;2022-08-21T11:25:13;29.70;48.60
74101;DHT22;62462;52.530;21.682;2022-08-21T11:27:58;29.70;48.80
74101;DHT22;62462;52.530;21.682;2022-08-21T11:30:38;29.70;49.00
74101;DHT22;62462;52.530;21.682;2022-08-21T11:36:00;29.70;49.00
74101;DHT22;62462;52.530;21.682;2022-08-21T11:38:41;29.80;48.80
74101;DHT22;62462;52.530;21.682;2022-08-21T11:41:54;30.00;49.00
74101;DHT22;62462;52.530;21.682;2022-08-21T11:52:30;30.20;47.50
74101;DHT22;62462;52.530;21.682;2022-08-21T11:55:05;30.30;48.30
74101;DHT22;62462;52.530;21.682;2022-08-21T12:00:30;30.10;46.40
74101;DHT22;62462;52.530;21.682;2022-08-21T12:03:16;29.80;47.00
74101;DHT22;62462;52.530;21.682;2022-08-21T12:05:55;29.60;47.60
74101;DHT22;62462;52.530;21.682;2022-08-21T12:08:32;29.40;48.00
74101;DHT22;62462;52.530;21.682;2022-08-21T12:11:03;29.40;48.60
74101;DHT22;62462;52.530;21.682;2022-08-21T12:13:38;29.60;48.10
74101;DHT22;62462;52.530;21.682;2022-08-21T12:18:36;30.00;47.70
74101;DHT22;62462;52.530;21.682;2022-08-21T12:21:25;30.20;46.50
74101;DHT22;62462;52.530;21.682;2022-08-21T12:26:57;30.60;45.90
74101;DHT22;62462;52.530;21.682;2022-08-21T12:35:02;31.00;45.60
74101;DHT22;62462;52.530;21.682;2022-08-21T12:37:50;30.80;46.00
74101;DHT22;62462;52.530;21.682;2022-08-21T12:40:26;30.60;46.30
74101;DHT22;62462;52.530;21.682;2022-08-21T12:42:56;30.40;46.50
74101;DHT22;62462;52.530;21.682;2022-08-21T12:45:36;30.20;46.80
74101;DHT22;62462;52.530;21.682;2022-08-21T12:51:12;29.90;47.60
74101;DHT22;62462;52.530;21.682;2022-08-21T12:56:12;30.10;48.10
74101;DHT22;62462;52.530;21.682;2022-08-21T12:58:54;30.30;47.40
74101;DHT22;62462;52.530;21.682;2022-08-21T13:01:25;30.60;47.20
74101;DHT22;62462;52.530;21.682;2022-08-21T13:03:54;30.80;47.00
74101;DHT22;62462;52.530;21.682;2022-08-21T13:06:23;30.90;46.20
74101;DHT22;62462;52.530;21.682;2022-08-21T13:08:56;31.10;45.50
74101;DHT22;62462;52.530;21.682;2022-08-21T13:11:25;31.10;45.40
74101;DHT22;62462;52.530;21.682;2022-08-21T13:13:53;31.10;45.70
74101;DHT22;62462;52.530;21.682;2022-08-21T13:16:27;31.10;45.70
74101;DHT22;62462;52.530;21.682;2022-08-21T13:19:05;31.20;45.70
74101;DHT22;62462;52.530;21.682;2022-08-21T13:21:39;31.20;45.90
74101;DHT22;62462;52.530;21.682;2022-08-21T13:26:41;31.20;45.60
74101;DHT22;62462;52.530;21.682;2022-08-21T13:29:10;31.30;45.60
74101;DHT22;62462;52.530;21.682;2022-08-21T13:31:38;31.30;45.60
74101;DHT22;62462;52.530;21.682;2022-08-21T13:34:05;31.40;45.40
74101;DHT22;62462;52.530;21.682;2022-08-21T13:36:39;31.30;44.20
74101;DHT22;62462;52.530;21.682;2022-08-21T13:42:30;31.20;43.90
74101;DHT22;62462;52.530;21.682;2022-08-21T13:44:56;31.10;43.70
74101;DHT22;62462;52.530;21.682;2022-08-21T13:47:22;31.10;43.80
74101;DHT22;62462;52.530;21.682;2022-08-21T13:49:51;31.10;44.30
74101;DHT22;62462;52.530;21.682;2022-08-21T13:52:23;31.10;43.70
74101;DHT22;62462;52.530;21.682;2022-08-21T13:54:57;31.10;44.00
74101;DHT22;62462;52.530;21.682;2022-08-21T13:57:30;31.10;44.20
74101;DHT22;62462;52.530;21.682;2022-08-21T14:00:16;31.30;44.00
74101;DHT22;62462;52.530;21.682;2022-08-21T14:02:47;31.30;43.70
74101;DHT22;62462;52.530;21.682;2022-08-21T14:05:19;31.30;44.00
74101;DHT22;62462;52.530;21.682;2022-08-21T14:07:46;31.50;44.40
74101;DHT22;62462;52.530;21.682;2022-08-21T14:10:18;31.70;44.20
74101;DHT22;62462;52.530;21.682;2022-08-21T14:12:50;31.60;43.90
74101;DHT22;62462;52.530;21.682;2022-08-21T14:15:19;31.20;43.80
74101;DHT22;62462;52.530;21.682;2022-08-21T14:17:51;31.00;44.20
74101;DHT22;62462;52.530;21.682;2022-08-21T14:20:34;30.80;44.60
74101;DHT22;62462;52.530;21.682;2022-08-21T14:23:03;30.70;44.30
74101;DHT22;62462;52.530;21.682;2022-08-21T14:25:40;30.60;44.80
74101;DHT22;62462;52.530;21.682;2022-08-21T14:31:15;30.70;43.70
74101;DHT22;62462;52.530;21.682;2022-08-21T14:33:43;30.70;44.30
74101;DHT22;62462;52.530;21.682;2022-08-21T14:36:09;30.90;44.70
74101;DHT22;62462;52.530;21.682;2022-08-21T14:38:37;31.00;44.70
74101;DHT22;62462;52.530;21.682;2022-08-21T14:41:24;31.20;44.50
74101;DHT22;62462;52.530;21.682;2022-08-21T14:43:54;31.20;44.50
74101;DHT22;62462;52.530;21.682;2022-08-21T14:49:36;31.40;44.20
74101;DHT22;62462;52.530;21.682;2022-08-21T14:52:03;31.50;43.80
74101;DHT22;62462;52.530;21.682;2022-08-21T14:58:13;31.40;42.60
74101;DHT22;62462;52.530;21.682;2022-08-21T15:00:39;31.50;42.80
74101;DHT22;62462;52.530;21.682;2022-08-21T15:03:04;31.40;42.80
74101;DHT22;62462;52.530;21.682;2022-08-21T15:05:30;31.40;42.00
74101;DHT22;62462;52.530;21.682;2022-08-21T15:07:56;31.20;42.70
74101;DHT22;62462;52.530;21.682;2022-08-21T15:10:21;31.20;42.90
74101;DHT22;62462;52.530;21.682;2022-08-21T15:12:48;31.20;43.20
74101;DHT22;62462;52.530;21.682;2022-08-21T15:15:14;31.10;43.40
74101;DHT22;62462;52.530;21.682;2022-08-21T15:17:40;31.10;43.20
74101;DHT22;62462;52.530;21.682;2022-08-21T15:20:06;31.10;43.10
74101;DHT22;62462;52.530;21.682;2022-08-21T15:22:34;31.10;43.20
74101;DHT22;62462;52.530;21.682;2022-08-21T15:24:59;31.10;43.10
74101;DHT22;62462;52.530;21.682;2022-08-21T15:27:27;31.10;43.50
74101;DHT22;62462;52.530;21.682;2022-08-21T15:29:53;31.10;43.40
74101;DHT22;62462;52.530;21.682;2022-08-21T15:32:25;31.10;43.30
74101;DHT22;62462;52.530;21.682;2022-08-21T15:34:53;31.00;43.30
74101;DHT22;62462;52.530;21.682;2022-08-21T15:37:21;31.00;43.20
74101;DHT22;62462;52.530;21.682;2022-08-21T15:39:48;30.90;42.20
74101;DHT22;62462;52.530;21.682;2022-08-21T15:42:14;30.70;42.30
74101;DHT22;62462;52.530;21.682;2022-08-21T15:44:40;30.50;42.30
74101;DHT22;62462;52.530;21.682;2022-08-21T15:47:11;30.30;42.80
74101;DHT22;62462;52.530;21.682;2022-08-21T15:49:37;30.30;43.20
74101;DHT22;62462;52.530;21.682;2022-08-21T15:52:03;30.30;43.60
74101;DHT22;62462;52.530;21.682;2022-08-21T15:54:29;30.30;43.70
74101;DHT22;62462;52.530;21.682;2022-08-21T15:56:55;30.30;43.50
74101;DHT22;62462;52.530;21.682;2022-08-21T15:59:21;30.30;43.80
74101;DHT22;62462;52.530;21.682;2022-08-21T16:01:51;30.30;44.00
74101;DHT22;62462;52.530;21.682;2022-08-21T16:04:25;30.20;43.90
74101;DHT22;62462;52.530;21.682;2022-08-21T16:06:54;30.20;44.00
74101;DHT22;62462;52.530;21.682;2022-08-21T16:09:22;30.10;44.20
74101;DHT22;62462;52.530;21.682;2022-08-21T16:11:48;30.00;43.90
74101;DHT22;62462;52.530;21.682;2022-08-21T16:14:15;29.90;44.10
74101;DHT22;62462;52.530;21.682;2022-08-21T16:16:42;29.70;44.20
74101;DHT22;62462;52.530;21.682;2022-08-21T16:19:10;29.60;44.50
74101;DHT22;62462;52.530;21.682;2022-08-21T16:21:36;29.60;44.60
74101;DHT22;62462;52.530;21.682;2022-08-21T16:24:02;29.40;44.70
74101;DHT22;62462;52.530;21.682;2022-08-21T16:26:29;29.30;44.90
74101;DHT22;62462;52.530;21.682;2022-08-21T16:28:57;29.40;45.00
74101;DHT22;62462;52.530;21.682;2022-08-21T16:31:24;29.30;45.00
74101;DHT22;62462;52.530;21.682;2022-08-21T16:33:52;29.20;45.00
74101;DHT22;62462;52.530;21.682;2022-08-21T16:36:19;29.10;45.10
74101;DHT22;62462;52.530;21.682;2022-08-21T16:38:47;29.00;45.40
74101;DHT22;62462;52.530;21.682;2022-08-21T16:41:17;28.90;45.60
74101;DHT22;62462;52.530;21.682;2022-08-21T16:43:45;28.80;45.60
74101;DHT22;62462;52.530;21.682;2022-08-21T16:46:12;28.70;45.70
74101;DHT22;62462;52.530;21.682;2022-08-21T16:48:40;28.70;46.00
74101;DHT22;62462;52.530;21.682;2022-08-21T16:51:14;28.60;46.10
74101;DHT22;62462;52.530;21.682;2022-08-21T16:53:43;28.60;46.20
74101;DHT22;62462;52.530;21.682;2022-08-21T16:56:12;28.50;46.10
74101;DHT22;62462;52.530;21.682;2022-08-21T16:58:41;28.50;46.30
74101;DHT22;62462;52.530;21.682;2022-08-21T17:01:13;28.40;46.30
74101;DHT22;62462;52.530;21.682;2022-08-21T17:03:43;28.40;46.30
74101;DHT22;62462;52.530;21.682;2022-08-21T17:06:11;28.30;46.50
74101;DHT22;62462;52.530;21.682;2022-08-21T17:08:37;28.30;46.50
74101;DHT22;62462;52.530;21.682;2022-08-21T17:11:05;28.20;46.50
74101;DHT22;62462;52.530;21.682;2022-08-21T17:13:33;28.20;46.60
74101;DHT22;62462;52.530;21.682;2022-08-21T17:16:05;28.10;46.80